createdAt,value
2022-10-18T00:00:35.588Z,43.60
2022-10-18T00:01:37.155Z,43.37
2022-10-18T00:02:38.725Z,43.54
2022-10-18T00:03:40.541Z,43.20
2022-10-18T00:04:42.071Z,43.50
2022-10-18T00:05:43.697Z,43.27
2022-10-18T00:06:45.286Z,43.41
2022-10-18T00:07:46.822Z,43.60
2022-10-18T00:08:48.360Z,43.51
2022-10-18T00:09:50.016Z,43.22
2022-10-18T00:10:51.936Z,43.15
2022-10-18T00:11:54.365Z,43.41
2022-10-18T00:12:55.894Z,43.54
2022-10-18T00:13:57.848Z,43.55
2022-10-18T00:14:59.350Z,43.16
2022-10-18T00:16:03.842Z,43.52
2022-10-18T00:17:05.399Z,43.25
2022-10-18T00:18:06.943Z,43.44
2022-10-18T00:19:08.559Z,43.29
2022-10-18T00:20:11.218Z,43.46
2022-10-18T00:21:18.856Z,43.34
2022-10-18T00:22:20.445Z,43.43
2022-10-18T00:23:21.960Z,43.41
2022-10-18T00:24:23.509Z,43.48
2022-10-18T00:25:25.030Z,43.53
2022-10-18T00:26:28.991Z,43.40
2022-10-18T00:27:30.944Z,43.50
2022-10-18T00:28:34.363Z,43.51
2022-10-18T00:29:35.955Z,43.23
2022-10-18T00:30:37.581Z,43.28
2022-10-18T00:31:39.269Z,43.51
2022-10-18T00:32:42.146Z,43.24
2022-10-18T00:33:45.738Z,43.41
2022-10-18T00:34:47.416Z,43.20
2022-10-18T00:35:48.946Z,43.23
2022-10-18T00:36:50.563Z,43.24
2022-10-18T00:37:52.157Z,43.19
2022-10-18T00:38:54.168Z,43.32
2022-10-18T00:39:55.758Z,43.34
2022-10-18T00:40:57.387Z,43.48
2022-10-18T00:41:58.933Z,43.42
2022-10-18T00:43:00.464Z,43.26
2022-10-18T00:44:24.716Z,43.57
2022-10-18T00:45:26.570Z,43.38
2022-10-18T00:46:34.192Z,43.43
2022-10-18T00:47:36.300Z,43.33
2022-10-18T00:48:37.933Z,43.23
2022-10-18T00:49:46.251Z,43.44
2022-10-18T00:50:50.793Z,43.63
2022-10-18T00:52:00.960Z,43.46
2022-10-18T00:53:04.804Z,43.76
2022-10-18T00:54:06.555Z,43.61
2022-10-18T00:55:09.262Z,43.65
2022-10-18T00:56:11.306Z,43.74
2022-10-18T00:57:13.988Z,43.73
2022-10-18T00:58:17.612Z,43.79
2022-10-18T00:59:20.117Z,43.44
2022-10-18T01:00:21.803Z,43.75
2022-10-18T01:01:25.955Z,43.46
2022-10-18T01:02:31.272Z,43.75
2022-10-18T01:03:33.236Z,43.69
2022-10-18T01:04:35.318Z,43.39
2022-10-18T01:05:45.755Z,43.71
2022-10-18T01:07:05.489Z,43.50
2022-10-18T01:08:36.562Z,43.77
2022-10-18T01:09:43.822Z,43.33
2022-10-18T01:11:07.503Z,43.50
2022-10-18T01:12:34.702Z,43.77
2022-10-18T01:13:48.715Z,43.56
2022-10-18T01:15:05.776Z,43.46
2022-10-18T01:16:43.893Z,43.66
2022-10-18T01:18:11.643Z,43.44
2022-10-18T01:19:31.358Z,43.37
2022-10-18T01:20:56.697Z,43.74
2022-10-18T01:22:30.580Z,43.73
2022-10-18T01:23:50.870Z,43.59
2022-10-18T01:25:18.511Z,43.77
2022-10-18T01:26:23.113Z,43.34
2022-10-18T01:27:35.076Z,43.45
2022-10-18T01:29:01.382Z,43.74
2022-10-18T01:30:25.541Z,43.38
2022-10-18T01:31:38.460Z,43.75
2022-10-18T01:32:47.230Z,43.33
2022-10-18T01:33:57.992Z,43.40
2022-10-18T01:35:05.020Z,43.39
2022-10-18T01:36:19.111Z,43.42
2022-10-18T01:37:22.779Z,43.68
2022-10-18T01:38:26.208Z,43.64
2022-10-18T01:39:32.011Z,43.67
2022-10-18T01:40:35.770Z,43.34
2022-10-18T01:41:39.938Z,43.45
2022-10-18T01:42:42.943Z,43.41
2022-10-18T01:43:48.366Z,43.71
2022-10-18T01:44:52.024Z,43.28
2022-10-18T01:45:55.766Z,43.29
2022-10-18T01:46:58.109Z,43.47
2022-10-18T01:48:01.011Z,43.30
2022-10-18T01:49:02.793Z,43.25
2022-10-18T01:50:06.482Z,43.50
2022-10-18T01:51:09.588Z,43.51
2022-10-18T01:52:17.630Z,43.64
2022-10-18T01:53:37.173Z,43.61
2022-10-18T01:54:42.694Z,43.43
2022-10-18T01:55:53.052Z,43.29
2022-10-18T01:57:00.309Z,43.43
2022-10-18T01:58:28.296Z,43.26
2022-10-18T01:59:54.568Z,43.21
2022-10-18T02:01:13.350Z,43.39
2022-10-18T02:02:26.918Z,43.29
2022-10-18T02:03:29.773Z,43.34
2022-10-18T02:04:47.119Z,43.42
2022-10-18T02:05:57.040Z,43.30
2022-10-18T02:07:23.411Z,43.21
2022-10-18T02:08:43.897Z,43.51
2022-10-18T02:10:18.774Z,43.45
2022-10-18T02:11:20.655Z,43.06
2022-10-18T02:12:23.359Z,43.08
2022-10-18T02:13:30.233Z,43.21
2022-10-18T02:14:32.964Z,43.17
2022-10-18T02:15:39.098Z,43.24
2022-10-18T02:16:49.241Z,43.20
2022-10-18T02:17:52.529Z,43.31
2022-10-18T02:18:59.253Z,43.39
2022-10-18T02:20:02.904Z,43.44
2022-10-18T02:21:08.561Z,43.41
2022-10-18T02:22:12.741Z,43.33
2022-10-18T02:23:18.573Z,43.58
2022-10-18T02:24:23.508Z,43.47
2022-10-18T02:25:30.119Z,43.57
2022-10-18T02:26:31.687Z,43.59
2022-10-18T02:27:33.276Z,43.23
2022-10-18T02:28:35.049Z,43.55
2022-10-18T02:29:37.009Z,43.45
2022-10-18T02:30:51.489Z,43.27
2022-10-18T02:32:03.978Z,43.35
2022-10-18T02:33:15.381Z,43.60
2022-10-18T02:34:23.469Z,43.28
2022-10-18T02:35:35.062Z,43.41
2022-10-18T02:36:43.442Z,43.71
2022-10-18T02:37:48.321Z,43.46
2022-10-18T02:38:56.147Z,43.59
2022-10-18T02:39:57.870Z,43.45
2022-10-18T02:40:59.755Z,43.64
2022-10-18T02:42:06.840Z,43.55
2022-10-18T02:43:08.631Z,43.61
2022-10-18T02:44:10.977Z,43.26
2022-10-18T02:45:14.507Z,43.42
2022-10-18T02:46:16.430Z,43.50
2022-10-18T02:47:18.015Z,43.34
2022-10-18T02:48:19.551Z,43.44
2022-10-18T02:49:21.283Z,43.46
2022-10-18T02:50:22.897Z,43.18
2022-10-18T02:51:25.202Z,43.58
2022-10-18T02:52:26.777Z,43.48
2022-10-18T02:53:28.285Z,43.67
2022-10-18T02:54:29.806Z,43.50
2022-10-18T02:55:31.379Z,43.27
2022-10-18T02:56:33.043Z,43.45
2022-10-18T02:57:34.773Z,43.46
2022-10-18T02:58:36.596Z,43.40
2022-10-18T02:59:38.131Z,43.54
2022-10-18T03:00:39.642Z,43.29
2022-10-18T03:01:41.255Z,43.48
2022-10-18T03:02:42.802Z,43.57
2022-10-18T03:03:44.345Z,43.30
2022-10-18T03:04:45.880Z,43.39
2022-10-18T03:05:51.522Z,43.71
2022-10-18T03:06:53.099Z,43.61
2022-10-18T03:07:57.436Z,43.49
2022-10-18T03:08:59.488Z,43.36
2022-10-18T03:10:01.062Z,43.62
2022-10-18T03:11:02.647Z,43.58
2022-10-18T03:12:04.452Z,43.33
2022-10-18T03:13:06.012Z,43.31
2022-10-18T03:14:07.599Z,43.37
2022-10-18T03:15:09.539Z,43.76
2022-10-18T03:16:12.268Z,43.69
2022-10-18T03:17:13.922Z,43.36
2022-10-18T03:18:15.723Z,43.37
2022-10-18T03:19:17.420Z,43.43
2022-10-18T03:20:19.859Z,43.65
2022-10-18T03:21:21.613Z,43.75
2022-10-18T03:22:25.252Z,43.67
2022-10-18T03:23:26.963Z,43.39
2022-10-18T03:24:28.488Z,43.42
2022-10-18T03:25:30.082Z,43.45
2022-10-18T03:26:31.641Z,43.33
2022-10-18T03:27:33.493Z,43.67
2022-10-18T03:28:35.419Z,43.37
2022-10-18T03:29:37.017Z,43.52
2022-10-18T03:30:41.419Z,43.61
2022-10-18T03:31:42.961Z,43.72
2022-10-18T03:32:44.497Z,43.47
2022-10-18T03:33:46.410Z,43.61
2022-10-18T03:34:47.959Z,43.38
2022-10-18T03:35:49.486Z,43.45
2022-10-18T03:36:51.024Z,43.40
2022-10-18T03:37:52.585Z,43.33
2022-10-18T03:38:54.170Z,43.77
2022-10-18T03:39:55.707Z,43.53
2022-10-18T03:40:57.320Z,43.69
2022-10-18T03:41:58.887Z,43.35
2022-10-18T03:43:00.516Z,43.38
2022-10-18T03:44:02.187Z,43.34
2022-10-18T03:45:04.678Z,43.77
2022-10-18T03:46:06.257Z,43.69
2022-10-18T03:47:07.853Z,43.79
2022-10-18T03:48:09.366Z,43.42
2022-10-18T03:49:10.876Z,43.58
2022-10-18T03:50:12.465Z,43.41
2022-10-18T03:51:13.992Z,43.69
2022-10-18T03:52:15.529Z,43.43
2022-10-18T03:53:17.176Z,43.67
2022-10-18T03:54:18.701Z,43.77
2022-10-18T03:55:20.252Z,43.67
2022-10-18T03:56:21.774Z,43.57
2022-10-18T03:57:23.371Z,43.79
2022-10-18T03:58:25.066Z,43.66
2022-10-18T03:59:26.745Z,43.50
2022-10-18T04:00:28.417Z,43.30
2022-10-18T04:01:30.725Z,43.49
2022-10-18T04:02:32.719Z,43.74
2022-10-18T04:03:34.430Z,43.75
2022-10-18T04:04:36.079Z,43.67
2022-10-18T04:05:37.598Z,43.46
2022-10-18T04:06:39.122Z,43.77
2022-10-18T04:07:40.854Z,43.77
2022-10-18T04:08:42.376Z,43.33
2022-10-18T04:09:43.988Z,43.75
2022-10-18T04:10:46.387Z,43.68
2022-10-18T04:11:50.947Z,43.41
2022-10-18T04:12:52.554Z,43.74
2022-10-18T04:13:54.085Z,43.81
2022-10-18T04:14:55.773Z,43.79
2022-10-18T04:15:57.322Z,43.69
2022-10-18T04:16:58.853Z,43.52
2022-10-18T04:18:01.190Z,43.87
2022-10-18T04:19:02.828Z,43.64
2022-10-18T04:20:04.710Z,43.92
2022-10-18T04:21:06.535Z,43.96
2022-10-18T04:22:09.574Z,43.57
2022-10-18T04:23:11.163Z,43.57
2022-10-18T04:24:12.691Z,43.58
2022-10-18T04:25:14.556Z,43.55
2022-10-18T04:26:16.857Z,43.50
2022-10-18T04:27:18.406Z,43.84
2022-10-18T04:28:19.984Z,43.64
2022-10-18T04:29:21.559Z,43.77
2022-10-18T04:30:23.248Z,43.45
2022-10-18T04:31:24.828Z,43.63
2022-10-18T04:32:28.734Z,43.80
2022-10-18T04:33:30.262Z,43.44
2022-10-18T04:34:31.895Z,43.73
2022-10-18T04:35:33.451Z,43.67
2022-10-18T04:36:34.973Z,43.45
2022-10-18T04:37:36.578Z,43.40
2022-10-18T04:38:38.076Z,43.57
2022-10-18T04:39:39.662Z,43.75
2022-10-18T04:40:41.178Z,43.64
2022-10-18T04:41:43.128Z,43.69
2022-10-18T04:42:44.664Z,43.46
2022-10-18T04:44:52.884Z,43.36
2022-10-18T04:45:54.432Z,43.71
2022-10-18T04:46:55.961Z,43.67
2022-10-18T04:47:57.506Z,43.52
2022-10-18T04:49:01.240Z,43.23
2022-10-18T04:50:02.915Z,43.53
2022-10-18T04:51:04.631Z,43.71
2022-10-18T04:52:06.282Z,43.62
2022-10-18T04:53:07.800Z,43.49
2022-10-18T04:54:09.356Z,43.29
2022-10-18T04:55:10.871Z,43.74
2022-10-18T04:56:12.423Z,43.60
2022-10-18T04:57:14.063Z,43.54
2022-10-18T04:58:17.245Z,43.34
2022-10-18T04:59:18.871Z,43.57
2022-10-18T05:00:20.537Z,43.42
2022-10-18T05:01:22.119Z,43.23
2022-10-18T05:02:23.668Z,43.57
2022-10-18T05:03:25.188Z,43.54
2022-10-18T05:04:26.936Z,43.63
2022-10-18T05:05:49.764Z,43.63
2022-10-18T05:06:50.029Z,43.77
2022-10-18T05:07:51.536Z,43.59
2022-10-18T05:08:53.062Z,44.04
2022-10-18T05:09:54.619Z,44.13
2022-10-18T05:10:56.242Z,44.16
2022-10-18T05:11:57.861Z,44.19
2022-10-18T05:13:00.323Z,43.95
2022-10-18T05:14:01.908Z,44.02
2022-10-18T05:15:04.045Z,44.00
2022-10-18T05:16:06.299Z,44.37
2022-10-18T05:17:07.825Z,44.05
2022-10-18T05:18:09.345Z,44.07
2022-10-18T05:19:10.958Z,44.25
2022-10-18T05:20:12.479Z,44.37
2022-10-18T05:21:14.041Z,44.32
2022-10-18T05:22:15.594Z,43.90
2022-10-18T05:23:17.168Z,43.92
2022-10-18T05:24:19.627Z,44.07
2022-10-18T05:25:21.814Z,43.94
2022-10-18T05:26:23.571Z,43.87
2022-10-18T05:27:25.097Z,43.75
2022-10-18T05:28:42.188Z,43.53
2022-10-18T05:29:43.865Z,43.79
2022-10-18T05:30:45.460Z,43.51
2022-10-18T05:31:48.807Z,43.65
2022-10-18T05:32:50.321Z,43.70
2022-10-18T05:33:51.851Z,43.23
2022-10-18T05:34:53.380Z,43.53
2022-10-18T05:35:54.958Z,43.29
2022-10-18T05:36:56.490Z,43.30
2022-10-18T05:37:58.071Z,43.36
2022-10-18T05:39:02.478Z,43.40
2022-10-18T05:40:07.084Z,43.31
2022-10-18T05:41:09.025Z,43.60
2022-10-18T05:42:10.622Z,43.27
2022-10-18T05:43:12.210Z,43.49
2022-10-18T05:44:13.743Z,43.33
2022-10-18T05:45:15.293Z,43.35
2022-10-18T05:46:16.780Z,43.44
2022-10-18T05:47:18.324Z,43.58
2022-10-18T05:48:20.077Z,43.39
2022-10-18T05:49:21.700Z,43.46
2022-10-18T05:50:23.247Z,43.84
2022-10-18T05:51:24.948Z,43.75
2022-10-18T05:52:26.440Z,43.48
2022-10-18T05:53:37.184Z,43.80
2022-10-18T05:54:39.453Z,43.75
2022-10-18T05:55:40.990Z,43.85
2022-10-18T05:56:42.534Z,43.68
2022-10-18T05:57:44.117Z,43.48
2022-10-18T05:58:51.032Z,43.82
2022-10-18T05:59:52.556Z,43.75
2022-10-18T06:00:54.077Z,43.55
2022-10-18T06:01:55.600Z,43.50
2022-10-18T06:03:00.181Z,43.64
2022-10-18T06:04:02.364Z,43.90
2022-10-18T06:05:04.071Z,43.73
2022-10-18T06:06:08.355Z,43.73
2022-10-18T06:07:11.471Z,43.78
2022-10-18T06:08:13.010Z,43.90
2022-10-18T06:09:14.632Z,43.68
2022-10-18T06:10:16.202Z,43.93
2022-10-18T06:11:20.875Z,43.70
2022-10-18T06:12:22.406Z,43.62
2022-10-18T06:13:23.975Z,43.70
2022-10-18T06:14:25.560Z,43.59
2022-10-18T06:15:27.114Z,43.50
2022-10-18T06:16:32.246Z,43.72
2022-10-18T06:17:34.225Z,43.56
2022-10-18T06:18:36.101Z,43.67
2022-10-18T06:19:37.670Z,43.83
2022-10-18T06:20:39.238Z,43.84
2022-10-18T06:21:40.743Z,43.62
2022-10-18T06:22:42.250Z,43.79
2022-10-18T06:23:44.039Z,43.74
2022-10-18T06:24:45.581Z,43.64
2022-10-18T06:25:47.097Z,43.66
2022-10-18T06:26:49.467Z,43.84
2022-10-18T06:27:51.000Z,43.92
2022-10-18T06:28:52.633Z,44.38
2022-10-18T06:29:54.200Z,44.12
2022-10-18T06:30:59.165Z,44.45
2022-10-18T06:32:00.967Z,44.11
2022-10-18T06:33:02.765Z,44.32
2022-10-18T06:34:05.007Z,43.90
2022-10-18T06:35:07.283Z,44.38
2022-10-18T06:36:15.003Z,44.45
2022-10-18T06:37:16.865Z,44.67
2022-10-18T06:38:18.596Z,44.28
2022-10-18T06:39:20.365Z,44.28
2022-10-18T06:40:22.158Z,44.12
2022-10-18T06:41:24.094Z,44.07
2022-10-18T06:42:25.837Z,43.93
2022-10-18T06:43:27.742Z,44.02
2022-10-18T06:44:29.541Z,44.35
2022-10-18T06:45:31.339Z,44.50
2022-10-18T06:46:33.433Z,44.57
2022-10-18T06:47:34.985Z,44.81
2022-10-18T06:48:38.791Z,44.79
2022-10-18T06:49:40.296Z,44.71
2022-10-18T06:50:42.199Z,44.73
2022-10-18T06:51:44.601Z,44.80
2022-10-18T06:52:46.998Z,44.60
2022-10-18T06:54:06.150Z,45.12
2022-10-18T06:55:10.255Z,44.82
2022-10-18T06:56:13.391Z,45.30
2022-10-18T06:57:14.937Z,45.22
2022-10-18T06:58:16.459Z,45.16
2022-10-18T06:59:18.301Z,45.32
2022-10-18T07:00:19.898Z,45.07
2022-10-18T07:01:21.978Z,45.27
2022-10-18T07:02:23.519Z,45.11
2022-10-18T07:03:26.205Z,45.15
2022-10-18T07:04:30.698Z,45.16
2022-10-18T07:06:34.306Z,44.80
2022-10-18T07:07:36.139Z,45.19
2022-10-18T07:08:38.810Z,45.21
2022-10-18T07:09:40.566Z,45.16
2022-10-18T07:10:42.253Z,44.98
2022-10-18T07:11:43.859Z,44.82
2022-10-18T07:12:45.398Z,45.19
2022-10-18T07:13:47.215Z,44.98
2022-10-18T07:14:48.831Z,44.91
2022-10-18T07:16:04.834Z,44.96
2022-10-18T07:17:06.407Z,44.86
2022-10-18T07:18:07.949Z,45.01
2022-10-18T07:19:09.781Z,44.97
2022-10-18T07:20:12.005Z,44.86
2022-10-18T07:21:15.830Z,45.03
2022-10-18T07:22:17.339Z,45.13
2022-10-18T07:23:21.027Z,44.96
2022-10-18T07:24:22.612Z,44.75
2022-10-18T07:25:25.928Z,45.10
2022-10-18T07:26:32.225Z,45.00
2022-10-18T07:27:42.211Z,45.21
2022-10-18T07:28:46.226Z,45.23
2022-10-18T07:29:48.778Z,45.32
2022-10-18T07:30:50.329Z,45.22
2022-10-18T07:31:51.856Z,45.31
2022-10-18T07:32:53.444Z,45.12
2022-10-18T07:33:55.078Z,45.09
2022-10-18T07:34:56.624Z,44.82
2022-10-18T07:36:02.667Z,44.92
2022-10-18T07:37:04.205Z,44.97
2022-10-18T07:38:05.755Z,45.00
2022-10-18T07:39:07.346Z,44.98
2022-10-18T07:40:09.539Z,44.94
2022-10-18T07:41:12.953Z,45.08
2022-10-18T07:42:14.624Z,44.63
2022-10-18T07:43:16.153Z,44.81
2022-10-18T07:44:17.664Z,44.68
2022-10-18T07:45:19.180Z,44.87
2022-10-18T07:46:22.410Z,45.08
2022-10-18T07:47:23.989Z,45.10
2022-10-18T07:48:26.086Z,45.16
2022-10-18T07:49:27.598Z,44.72
2022-10-18T07:50:29.136Z,45.09
2022-10-18T07:51:34.796Z,44.82
2022-10-18T07:52:36.525Z,45.14
2022-10-18T07:53:38.415Z,44.76
2022-10-18T07:54:40.065Z,44.78
2022-10-18T07:55:41.773Z,44.98
2022-10-18T07:56:43.323Z,44.97
2022-10-18T07:57:44.879Z,44.73
2022-10-18T07:58:56.620Z,44.63
2022-10-18T07:59:58.156Z,44.64
2022-10-18T08:01:05.525Z,45.00
2022-10-18T08:02:07.115Z,44.83
2022-10-18T08:03:08.681Z,44.82
2022-10-18T08:04:14.042Z,44.86
2022-10-18T08:05:17.883Z,44.57
2022-10-18T08:06:21.712Z,45.00
2022-10-18T08:07:23.230Z,44.70
2022-10-18T08:08:27.971Z,44.65
2022-10-18T08:09:29.482Z,44.84
2022-10-18T08:10:31.026Z,44.81
2022-10-18T08:11:33.018Z,44.83
2022-10-18T08:12:34.795Z,45.06
2022-10-18T08:13:36.750Z,45.04
2022-10-18T08:14:38.312Z,44.78
2022-10-18T08:15:40.120Z,45.09
2022-10-18T08:16:41.739Z,45.11
2022-10-18T08:17:45.776Z,44.76
2022-10-18T08:18:47.416Z,44.80
2022-10-18T08:19:58.542Z,44.84
2022-10-18T08:21:12.180Z,44.93
2022-10-18T08:22:13.690Z,44.76
2022-10-18T08:23:15.264Z,45.04
2022-10-18T08:24:16.855Z,44.97
2022-10-18T08:25:18.552Z,45.06
2022-10-18T08:26:21.915Z,44.79
2022-10-18T08:27:25.542Z,44.83
2022-10-18T08:28:27.181Z,44.98
2022-10-18T08:29:31.683Z,45.03
2022-10-18T08:30:35.440Z,44.81
2022-10-18T08:31:37.300Z,44.89
2022-10-18T08:32:38.813Z,44.99
2022-10-18T08:33:40.987Z,45.05
2022-10-18T08:34:42.526Z,45.20
2022-10-18T08:35:44.240Z,44.92
2022-10-18T08:36:45.784Z,45.35
2022-10-18T08:37:48.490Z,45.31
2022-10-18T08:38:50.040Z,45.01
2022-10-18T08:39:51.594Z,45.35
2022-10-18T08:40:53.246Z,45.33
2022-10-18T08:42:12.797Z,45.27
2022-10-18T08:43:38.618Z,45.41
2022-10-18T08:44:49.409Z,45.33
2022-10-18T08:45:53.432Z,45.22
2022-10-18T08:47:15.003Z,44.91
2022-10-18T08:48:24.884Z,45.13
2022-10-18T08:49:36.128Z,44.98
2022-10-18T08:50:38.730Z,44.98
2022-10-18T08:51:45.381Z,44.81
2022-10-18T08:53:05.161Z,44.79
2022-10-18T08:54:12.490Z,45.06
2022-10-18T08:55:26.593Z,45.09
2022-10-18T08:56:28.209Z,44.89
2022-10-18T08:57:31.179Z,45.14
2022-10-18T08:58:33.638Z,45.24
2022-10-18T08:59:39.749Z,45.64
2022-10-18T09:00:49.574Z,46.16
2022-10-18T09:02:10.967Z,46.84
2022-10-18T09:03:46.422Z,48.02
2022-10-18T09:05:09.058Z,50.06
2022-10-18T09:06:13.472Z,50.99
2022-10-18T09:07:21.069Z,51.59
2022-10-18T09:08:39.036Z,51.54
2022-10-18T09:10:14.905Z,51.70
2022-10-18T09:11:34.533Z,51.25
2022-10-18T09:12:44.852Z,51.31
2022-10-18T09:14:12.678Z,51.39
2022-10-18T09:15:17.266Z,51.77
2022-10-18T09:16:31.500Z,51.82
2022-10-18T09:17:57.649Z,51.68
2022-10-18T09:19:43.706Z,51.73
2022-10-18T09:20:58.989Z,51.64
2022-10-18T09:22:14.139Z,51.93
2022-10-18T09:23:28.753Z,52.14
2022-10-18T09:24:44.614Z,52.06
2022-10-18T09:25:57.833Z,52.42
2022-10-18T09:27:10.261Z,51.91
2022-10-18T09:28:26.337Z,52.07
2022-10-18T09:29:44.703Z,52.25
2022-10-18T09:31:07.424Z,52.07
2022-10-18T09:32:35.440Z,52.02
2022-10-18T09:33:55.872Z,51.79
2022-10-18T09:35:16.969Z,51.85
2022-10-18T09:36:35.428Z,51.24
2022-10-18T09:37:37.356Z,51.15
2022-10-18T09:38:48.402Z,51.00
2022-10-18T09:39:55.370Z,51.19
2022-10-18T09:41:00.472Z,51.05
2022-10-18T09:42:05.125Z,50.79
2022-10-18T09:43:12.179Z,51.07
2022-10-18T09:44:27.965Z,50.64
2022-10-18T09:45:37.857Z,50.80
2022-10-18T09:46:46.336Z,50.60
2022-10-18T09:48:04.955Z,50.81
2022-10-18T09:49:16.349Z,50.64
2022-10-18T09:50:27.591Z,50.28
2022-10-18T09:51:36.493Z,50.37
2022-10-18T09:52:44.365Z,50.26
2022-10-18T09:54:04.566Z,50.33
2022-10-18T09:55:16.461Z,50.07
2022-10-18T09:56:24.316Z,49.93
2022-10-18T09:57:51.081Z,50.26
2022-10-18T09:58:52.724Z,49.78
2022-10-18T09:59:54.449Z,49.71
2022-10-18T10:00:56.300Z,50.08
2022-10-18T10:01:57.828Z,49.80
2022-10-18T10:03:01.302Z,49.70
2022-10-18T10:04:02.878Z,49.56
2022-10-18T10:05:04.920Z,49.48
2022-10-18T10:06:12.688Z,49.69
2022-10-18T10:07:42.234Z,49.38
2022-10-18T10:08:48.306Z,49.43
2022-10-18T10:10:07.166Z,49.43
2022-10-18T10:11:31.267Z,49.05
2022-10-18T10:12:38.191Z,49.27
2022-10-18T10:13:39.759Z,49.15
2022-10-18T10:14:44.498Z,48.87
2022-10-18T10:15:57.824Z,49.33
2022-10-18T10:17:21.183Z,49.14
2022-10-18T10:18:26.224Z,49.09
2022-10-18T10:19:32.289Z,49.14
2022-10-18T10:20:42.474Z,48.92
2022-10-18T10:21:44.360Z,49.13
2022-10-18T10:22:47.957Z,49.00
2022-10-18T10:23:59.334Z,49.06
2022-10-18T10:25:01.172Z,48.54
2022-10-18T10:26:20.653Z,48.77
2022-10-18T10:27:32.710Z,48.51
2022-10-18T10:28:48.670Z,48.80
2022-10-18T10:29:57.660Z,48.61
2022-10-18T10:31:26.487Z,48.54
2022-10-18T10:32:44.419Z,48.66
2022-10-18T10:33:47.590Z,48.43
2022-10-18T10:34:50.410Z,48.39
2022-10-18T10:35:58.618Z,48.37
2022-10-18T10:37:00.209Z,48.14
2022-10-18T10:38:02.301Z,48.19
2022-10-18T10:39:18.971Z,48.46
2022-10-18T10:40:30.570Z,48.27
2022-10-18T10:42:54.543Z,48.29
2022-10-18T10:44:03.928Z,48.36
2022-10-18T10:45:05.926Z,47.87
2022-10-18T10:46:11.766Z,48.17
2022-10-18T10:47:32.323Z,48.16
2022-10-18T10:48:47.082Z,48.13
2022-10-18T10:49:48.625Z,47.92
2022-10-18T10:50:55.408Z,48.23
2022-10-18T10:52:08.842Z,48.26
2022-10-18T10:53:26.845Z,48.04
2022-10-18T10:54:35.198Z,48.14
2022-10-18T10:55:37.574Z,48.06
2022-10-18T10:57:05.476Z,48.05
2022-10-18T10:58:17.696Z,48.28
2022-10-18T10:59:21.824Z,47.96
2022-10-18T11:00:44.512Z,48.35
2022-10-18T11:01:49.781Z,47.91
2022-10-18T11:03:27.362Z,48.18
2022-10-18T11:04:31.854Z,47.77
2022-10-18T11:05:49.638Z,47.71
2022-10-18T11:07:09.129Z,47.71
2022-10-18T11:08:13.284Z,47.90
2022-10-18T11:09:49.860Z,48.00
2022-10-18T11:11:04.634Z,47.59
2022-10-18T11:12:18.170Z,47.96
2022-10-18T11:13:47.539Z,47.62
2022-10-18T11:15:03.050Z,47.53
2022-10-18T11:16:11.651Z,47.72
2022-10-18T11:17:22.354Z,47.48
2022-10-18T11:18:34.663Z,47.75
2022-10-18T11:19:55.530Z,47.42
2022-10-18T11:21:08.157Z,47.67
2022-10-18T11:22:16.187Z,47.60
2022-10-18T11:23:19.311Z,47.50
2022-10-18T11:24:24.921Z,47.61
2022-10-18T11:25:38.573Z,47.43
2022-10-18T11:27:22.714Z,47.66
2022-10-18T11:28:36.251Z,47.11
2022-10-18T11:30:12.545Z,47.34
2022-10-18T11:31:26.268Z,47.27
2022-10-18T11:32:38.109Z,47.06
2022-10-18T11:34:08.606Z,46.99
2022-10-18T11:35:27.931Z,47.43
2022-10-18T11:37:22.589Z,47.26
2022-10-18T11:38:56.668Z,47.12
2022-10-18T11:40:19.868Z,46.87
2022-10-18T11:41:30.613Z,47.34
2022-10-18T11:43:09.579Z,47.02
2022-10-18T11:44:29.153Z,47.18
2022-10-18T11:45:33.601Z,47.31
2022-10-18T11:46:52.233Z,47.35
2022-10-18T11:48:20.801Z,47.21
2022-10-18T11:49:37.569Z,47.09
2022-10-18T11:50:51.417Z,47.16
2022-10-18T11:52:14.024Z,46.87
2022-10-18T11:53:21.603Z,47.26
2022-10-18T11:54:37.348Z,47.08
2022-10-18T11:55:57.037Z,46.62
2022-10-18T11:57:20.084Z,46.62
2022-10-18T11:58:36.962Z,46.75
2022-10-18T11:59:42.296Z,46.69
2022-10-18T12:00:46.471Z,46.70
2022-10-18T12:01:47.949Z,46.66
2022-10-18T12:02:52.543Z,46.35
2022-10-18T12:03:56.881Z,46.63
2022-10-18T12:05:22.564Z,46.64
2022-10-18T12:06:30.758Z,46.52
2022-10-18T12:07:42.417Z,46.55
2022-10-18T12:08:49.476Z,46.54
2022-10-18T12:09:55.078Z,46.50
2022-10-18T12:11:05.500Z,46.50
2022-10-18T12:12:14.586Z,46.51
2022-10-18T12:13:35.089Z,46.49
2022-10-18T12:14:48.459Z,46.30
2022-10-18T12:15:51.762Z,46.27
2022-10-18T12:17:27.979Z,46.31
2022-10-18T12:18:23.519Z,46.24
2022-10-18T12:19:30.000Z,46.47
2022-10-18T12:20:35.446Z,46.41
2022-10-18T12:21:37.610Z,46.34
2022-10-18T12:22:45.667Z,46.42
2022-10-18T12:23:59.442Z,46.14
2022-10-18T12:25:01.927Z,46.50
2022-10-18T12:26:06.989Z,46.19
2022-10-18T12:27:13.682Z,46.38
2022-10-18T12:28:32.788Z,46.31
2022-10-18T12:29:50.271Z,46.30
2022-10-18T12:31:04.291Z,46.08
2022-10-18T12:32:20.321Z,46.13
2022-10-18T12:33:29.027Z,46.32
2022-10-18T12:34:45.327Z,46.42
2022-10-18T12:36:30.616Z,46.13
2022-10-18T12:38:02.377Z,46.14
2022-10-18T12:39:10.184Z,46.01
2022-10-18T12:40:20.456Z,46.21
2022-10-18T12:41:29.090Z,46.29
2022-10-18T12:42:33.544Z,46.41
2022-10-18T12:43:38.150Z,46.37
2022-10-18T12:44:39.983Z,46.25
2022-10-18T12:45:57.408Z,46.08
2022-10-18T12:47:04.715Z,46.00
2022-10-18T12:48:07.884Z,46.14
2022-10-18T12:49:12.724Z,46.28
2022-10-18T12:50:26.145Z,46.01
2022-10-18T12:51:27.756Z,45.93
2022-10-18T12:52:33.532Z,46.28
2022-10-18T12:53:35.448Z,46.22
2022-10-18T12:54:39.377Z,46.07
2022-10-18T12:56:50.934Z,45.88
2022-10-18T12:57:52.434Z,45.85
2022-10-18T12:59:14.340Z,45.80
2022-10-18T13:00:31.093Z,46.11
2022-10-18T13:01:50.763Z,45.90
2022-10-18T13:03:18.124Z,45.76
2022-10-18T13:04:28.733Z,45.76
2022-10-18T13:06:00.726Z,46.20
2022-10-18T13:07:06.083Z,46.02
2022-10-18T13:08:30.332Z,45.90
2022-10-18T13:09:37.206Z,45.88
2022-10-18T13:10:39.358Z,45.65
2022-10-18T13:11:40.997Z,46.05
2022-10-18T13:13:29.580Z,45.92
2022-10-18T13:14:59.059Z,45.50
2022-10-18T13:16:21.785Z,45.69
2022-10-18T13:17:32.529Z,45.76
2022-10-18T13:18:49.036Z,45.88
2022-10-18T13:20:24.624Z,45.96
2022-10-18T13:21:33.668Z,45.63
2022-10-18T13:23:26.233Z,45.86
2022-10-18T13:24:30.453Z,45.76
2022-10-18T13:26:17.650Z,45.77
2022-10-18T13:27:36.941Z,45.78
2022-10-18T13:29:01.028Z,45.53
2022-10-18T13:30:17.615Z,45.46
2022-10-18T13:31:39.333Z,45.75
2022-10-18T13:33:16.881Z,45.71
2022-10-18T13:34:22.485Z,45.77
2022-10-18T13:35:44.171Z,45.75
2022-10-18T13:36:57.634Z,45.59
2022-10-18T13:38:00.063Z,45.72
2022-10-18T13:39:06.069Z,45.75
2022-10-18T13:40:25.411Z,45.34
2022-10-18T13:41:58.583Z,45.55
2022-10-18T13:43:52.188Z,45.55
2022-10-18T13:44:54.057Z,45.20
2022-10-18T13:45:56.051Z,45.34
2022-10-18T13:46:57.505Z,45.30
2022-10-18T13:48:30.031Z,45.39
2022-10-18T13:49:43.812Z,45.23
2022-10-18T13:50:47.749Z,45.62
2022-10-18T13:52:25.817Z,45.64
2022-10-18T13:54:02.242Z,45.44
2022-10-18T13:55:49.824Z,45.31
2022-10-18T13:57:03.843Z,45.32
2022-10-18T13:58:15.217Z,45.64
2022-10-18T13:59:58.145Z,45.37
2022-10-18T14:01:07.748Z,45.14
2022-10-18T14:02:51.100Z,45.30
2022-10-18T14:04:42.078Z,45.23
2022-10-18T14:06:06.462Z,45.04
2022-10-18T14:07:10.373Z,45.36
2022-10-18T14:08:17.489Z,45.00
2022-10-18T14:09:32.786Z,45.26
2022-10-18T14:11:03.041Z,45.24
2022-10-18T14:12:44.393Z,45.38
2022-10-18T14:13:47.682Z,45.52
2022-10-18T14:15:05.243Z,45.73
2022-10-18T14:16:31.331Z,45.43
2022-10-18T14:17:51.719Z,45.54
2022-10-18T14:18:58.869Z,45.36
2022-10-18T14:20:29.522Z,45.48
2022-10-18T14:21:38.368Z,45.35
2022-10-18T14:22:51.697Z,45.68
2022-10-18T14:23:53.405Z,45.27
2022-10-18T14:24:57.228Z,45.36
2022-10-18T14:26:14.503Z,45.29
2022-10-18T14:27:29.344Z,45.42
2022-10-18T14:28:48.044Z,45.29
2022-10-18T14:30:18.402Z,45.39
2022-10-18T14:31:20.201Z,45.22
2022-10-18T14:32:31.636Z,45.25
2022-10-18T14:33:45.524Z,45.13
2022-10-18T14:34:47.107Z,45.00
2022-10-18T14:36:00.206Z,45.09
2022-10-18T14:37:01.880Z,45.21
2022-10-18T14:38:03.620Z,45.45
2022-10-18T14:39:07.646Z,45.00